Terminal Aerodrome Forecast
Issued by NWS

Home | Current Version | Previous Version | Text Only | Print | Product List | Glossary On
Versions: 1 2 3 4 5 6 7 8 9 10 11 12 13
504
FTUS45 KABQ 281131
TAFLVS
TAF
KLVS 281131Z 2812/2912 09006KT P6SM VCSH BKN070 OVC120
      TEMPO 2812/2815 5SM -RA BR BKN040
     FM281500 18006KT P6SM SCT060 SCT100
     FM281900 17008KT P6SM VCTS SCT070CB SCT130
     FM290200 14007KT P6SM VCSH BKN080=

USA.gov is the U.S. government's official web portal to all federal, state and local government web resources and services.